Time;durP1;ratioP1;P1;durP2;ratioP2;P2;SDS_P1;SDS_P2;PMS_P1;PMS_P2;Temp;Humidity;BMP_temperature;BMP_pressure;BME280_temperature;BME280_humidity;BME280_pressure;Samples;Min_cycle;Max_cycle;Signal;HPM_P1;HPM_P2
2022/08/26 00:01:36;;;;;;;37.78;13.40;;;21.10;99.90;;;;;;10133689;29;20264;-84
2022/08/26 00:06:40;;;;;;;28.95;12.20;;;20.80;99.90;;;;;;10133987;29;20244;-84
2022/08/26 00:11:47;;;;;;;30.15;11.30;;;20.70;99.90;;;;;;10132640;29;20725;-85
2022/08/26 00:16:52;;;;;;;26.17;12.10;;;20.50;99.90;;;;;;10124681;29;20650;-84
2022/08/26 00:21:56;;;;;;;29.60;13.13;;;20.30;99.90;;;;;;10128542;29;20285;-84
2022/08/26 00:26:59;;;;;;;30.83;13.32;;;20.10;99.90;;;;;;10164685;29;20239;-84
2022/08/26 00:32:02;;;;;;;26.83;14.85;;;20.00;99.90;;;;;;10171326;29;20752;-84
2022/08/26 00:37:05;;;;;;;31.38;13.10;;;19.90;99.90;;;;;;10142161;29;20240;-84
2022/08/26 00:42:13;;;;;;;20.13;12.95;;;19.80;99.90;;;;;;10097064;29;20244;-84
2022/08/26 00:47:27;;;;;;;31.95;14.32;;;19.70;99.90;;;;;;10109568;29;20296;-84
2022/08/26 00:52:34;;;;;;;26.17;14.55;;;19.70;99.90;;;;;;10175520;29;20258;-84
2022/08/26 00:57:40;;;;;;;42.13;15.63;;;19.70;99.90;;;;;;10172158;29;20235;-84
2022/08/26 01:02:44;;;;;;;37.05;16.90;;;19.70;99.90;;;;;;10150785;29;20243;-84
2022/08/26 01:07:49;;;;;;;27.20;14.88;;;19.70;99.90;;;;;;10132340;29;20289;-84
2022/08/26 01:13:05;;;;;;;27.73;16.67;;;19.90;99.90;;;;;;10165950;29;20671;-84
2022/08/26 01:18:09;;;;;;;37.42;15.85;;;19.80;99.90;;;;;;10112271;29;20264;-84
2022/08/26 01:23:14;;;;;;;25.20;15.30;;;19.70;99.90;;;;;;10098487;29;20236;-84
2022/08/26 01:28:22;;;;;;;35.47;15.68;;;19.70;99.90;;;;;;10138130;29;20239;-84
2022/08/26 01:33:42;;;;;;;23.25;16.83;;;19.80;99.90;;;;;;10162457;29;20267;-84
2022/08/26 01:38:45;;;;;;;33.30;17.10;;;19.70;99.90;;;;;;10169065;29;20261;-84
2022/08/26 01:43:51;;;;;;;27.58;15.20;;;19.60;99.90;;;;;;10152280;29;20288;-83
2022/08/26 01:48:57;;;;;;;28.20;15.98;;;19.50;99.90;;;;;;10161211;29;20227;-84
2022/08/26 01:54:00;;;;;;;43.08;18.70;;;19.50;99.90;;;;;;10167677;29;20275;-84
2022/08/26 01:59:07;;;;;;;27.92;17.60;;;19.40;99.90;;;;;;10131039;29;20236;-84
2022/08/26 02:04:29;;;;;;;40.53;17.40;;;19.40;99.90;;;;;;10144706;29;20306;-84
2022/08/26 02:09:32;;;;;;;26.02;16.75;;;19.40;99.90;;;;;;10166902;29;20701;-84
2022/08/26 02:14:48;;;;;;;34.13;18.30;;;19.40;99.90;;;;;;10159332;29;20229;-84
2022/08/26 02:19:52;;;;;;;25.38;20.02;;;19.40;99.90;;;;;;10103781;29;20243;-84
2022/08/26 02:25:06;;;;;;;34.30;20.10;;;19.50;99.90;;;;;;10130478;29;20239;-84
2022/08/26 02:30:14;;;;;;;38.42;22.27;;;19.50;99.90;;;;;;10156322;29;20259;-84
2022/08/26 02:35:20;;;;;;;32.30;20.42;;;19.60;99.90;;;;;;10129701;29;20970;-84
2022/08/26 02:40:27;;;;;;;26.00;20.35;;;19.80;99.90;;;;;;10128776;29;20256;-84
2022/08/26 02:45:31;;;;;;;34.97;19.65;;;19.90;99.90;;;;;;10129972;29;20232;-84
2022/08/26 02:50:34;;;;;;;27.67;19.42;;;20.00;99.90;;;;;;10130296;29;20263;-84
2022/08/26 02:55:39;;;;;;;34.25;19.58;;;19.90;99.90;;;;;;10143478;29;20734;-84
2022/08/26 03:00:43;;;;;;;29.85;21.15;;;20.00;99.90;;;;;;10169001;29;20239;-84
2022/08/26 03:05:55;;;;;;;25.88;20.95;;;20.00;99.90;;;;;;10166369;29;20243;-84
2022/08/26 03:10:58;;;;;;;35.72;21.90;;;19.90;99.90;;;;;;10130148;29;20259;-84
2022/08/26 03:16:03;;;;;;;28.75;20.65;;;20.10;99.90;;;;;;10131123;29;20292;-84
2022/08/26 03:21:09;;;;;;;26.48;20.05;;;20.00;99.90;;;;;;10129202;29;20240;-84
2022/08/26 03:26:13;;;;;;;28.83;20.35;;;20.00;99.90;;;;;;10135717;29;20287;-84
2022/08/26 03:31:17;;;;;;;27.55;20.58;;;20.00;99.90;;;;;;10129440;29;20256;-84
2022/08/26 03:36:20;;;;;;;31.23;20.55;;;20.00;99.90;;;;;;10146460;29;20235;-84
2022/08/26 03:41:22;;;;;;;27.50;20.88;;;19.90;99.90;;;;;;10166026;29;20248;-84
2022/08/26 03:46:25;;;;;;;29.08;20.67;;;19.90;99.90;;;;;;10121979;29;20232;-84
2022/08/26 03:51:28;;;;;;;34.42;20.80;;;19.90;99.90;;;;;;10184844;29;20712;-84
2022/08/26 03:56:32;;;;;;;29.15;21.42;;;19.70;99.90;;;;;;10169105;29;20235;-84
2022/08/26 04:01:36;;;;;;;26.17;21.15;;;19.80;99.90;;;;;;10174999;28;20236;-83
2022/08/26 04:06:42;;;;;;;28.20;21.50;;;19.70;99.90;;;;;;10135400;29;20287;-83
2022/08/26 04:11:47;;;;;;;27.92;20.40;;;19.60;99.90;;;;;;10133373;29;20259;-83
2022/08/26 04:16:53;;;;;;;26.77;19.92;;;19.40;99.90;;;;;;10164575;29;20268;-83
2022/08/26 04:21:56;;;;;;;31.23;19.92;;;19.30;99.90;;;;;;10132153;29;20267;-83
2022/08/26 04:27:02;;;;;;;28.83;20.17;;;19.20;99.90;;;;;;10152067;29;20311;-83
2022/08/26 04:32:04;;;;;;;25.55;18.77;;;19.30;99.90;;;;;;10156298;29;20319;-83
2022/08/26 04:37:07;;;;;;;22.27;19.23;;;19.20;99.90;;;;;;10117147;29;20813;-83
2022/08/26 04:42:11;;;;;;;25.67;20.25;;;19.20;99.90;;;;;;10158533;29;20302;-83
2022/08/26 04:47:14;;;;;;;28.48;20.23;;;19.20;99.90;;;;;;10171444;29;20302;-83
2022/08/26 04:52:16;;;;;;;24.75;20.38;;;19.30;99.90;;;;;;10140919;29;20255;-83
2022/08/26 04:57:19;;;;;;;29.80;19.77;;;19.30;99.90;;;;;;10142345;29;20290;-83
2022/08/26 05:02:21;;;;;;;30.50;22.23;;;19.40;99.90;;;;;;10169914;29;20224;-83
2022/08/26 05:07:24;;;;;;;24.95;20.63;;;19.50;99.90;;;;;;10142600;29;20237;-83
2022/08/26 05:12:29;;;;;;;25.75;20.58;;;19.50;99.90;;;;;;10103541;29;20240;-84
2022/08/26 05:17:32;;;;;;;24.88;21.10;;;19.70;99.90;;;;;;10132208;29;20229;-83
2022/08/26 05:22:34;;;;;;;29.90;19.52;;;19.60;99.90;;;;;;10137228;29;20681;-84
2022/08/26 05:27:37;;;;;;;29.08;20.85;;;19.60;99.90;;;;;;10130053;29;20248;-83
2022/08/26 05:32:40;;;;;;;24.83;20.80;;;19.60;99.90;;;;;;10129843;29;20248;-83
2022/08/26 05:37:43;;;;;;;26.95;20.90;;;19.60;99.90;;;;;;10126018;29;20252;-84
2022/08/26 05:42:46;;;;;;;24.80;19.48;;;19.60;99.90;;;;;;10125025;29;20290;-83
2022/08/26 05:47:49;;;;;;;25.92;20.98;;;19.70;99.90;;;;;;10138081;29;20227;-84
2022/08/26 05:52:52;;;;;;;29.73;21.10;;;19.50;99.90;;;;;;10161139;29;20307;-84
2022/08/26 05:57:55;;;;;;;22.50;20.00;;;19.50;99.90;;;;;;10159048;29;20657;-84
2022/08/26 06:02:58;;;;;;;31.20;20.52;;;19.80;99.90;;;;;;10168449;29;20239;-84
2022/08/26 06:08:10;;;;;;;23.67;18.88;;;20.00;99.90;;;;;;10160149;29;20247;-84
2022/08/26 06:13:13;;;;;;;23.40;19.13;;;20.10;99.90;;;;;;10141039;29;20298;-84
2022/08/26 06:18:19;;;;;;;28.90;16.48;;;20.30;99.90;;;;;;10147066;29;20236;-84
2022/08/26 06:28:44;;;;;;;25.02;17.85;;;20.80;99.90;;;;;;10091241;29;20265;-84
2022/08/26 06:33:47;;;;;;;25.58;17.35;;;21.00;99.90;;;;;;10093032;29;20305;-84
2022/08/26 06:38:51;;;;;;;21.75;19.23;;;20.80;99.90;;;;;;10129344;29;20255;-84
2022/08/26 06:43:55;;;;;;;21.63;19.33;;;21.20;99.90;;;;;;10159886;29;20658;-84
2022/08/26 06:48:58;;;;;;;20.38;14.63;;;;;;;;;;10130264;29;20272;-84
2022/08/26 06:54:02;;;;;;;22.73;16.75;;;22.00;99.90;;;;;;10144125;29;20267;-84
2022/08/26 06:59:07;;;;;;;21.15;14.23;;;22.10;99.90;;;;;;10137394;29;20772;-85
2022/08/26 07:04:13;;;;;;;17.40;14.70;;;22.30;99.90;;;;;;10137826;29;20239;-85
2022/08/26 07:09:17;;;;;;;17.65;14.30;;;22.60;99.90;;;;;;10129746;29;20236;-84
2022/08/26 07:14:19;;;;;;;18.05;14.20;;;22.50;99.90;;;;;;10172023;29;20701;-84
2022/08/26 07:19:24;;;;;;;20.02;13.73;;;22.60;99.90;;;;;;10174117;29;20259;-84
2022/08/26 07:24:35;;;;;;;21.35;19.05;;;22.60;99.90;;;;;;10161239;29;20268;-85
2022/08/26 07:29:39;;;;;;;22.15;17.40;;;23.20;99.90;;;;;;10132831;29;20235;-84
2022/08/26 07:34:42;;;;;;;21.98;19.67;;;23.40;99.90;;;;;;10130991;29;20292;-84
2022/08/26 07:39:47;;;;;;;20.13;14.07;;;23.80;99.90;;;;;;10132269;29;20260;-84
2022/08/26 07:44:50;;;;;;;22.50;16.83;;;23.60;99.90;;;;;;10144828;29;20245;-84
2022/08/26 07:49:54;;;;;;;20.50;14.63;;;24.00;99.90;;;;;;10128442;29;20284;-85
2022/08/26 07:54:59;;;;;;;22.60;20.20;;;24.30;99.90;;;;;;10139624;29;21176;-84
2022/08/26 08:00:06;;;;;;;15.98;12.93;;;24.40;99.90;;;;;;10139702;29;20637;-84
2022/08/26 08:05:15;;;;;;;18.98;16.20;;;24.60;99.90;;;;;;10130899;29;20282;-84
2022/08/26 08:10:22;;;;;;;21.92;19.63;;;24.60;99.90;;;;;;10116508;29;20240;-85
2022/08/26 08:15:30;;;;;;;23.73;15.93;;;24.80;99.90;;;;;;10133145;29;20228;-85
2022/08/26 08:20:34;;;;;;;18.52;13.73;;;24.90;99.90;;;;;;10133320;29;20231;-85
2022/08/26 08:25:37;;;;;;;22.30;18.35;;;25.00;99.90;;;;;;10126526;29;20275;-85
2022/08/26 08:30:41;;;;;;;18.00;15.07;;;25.00;99.90;;;;;;10128130;29;20709;-85
2022/08/26 08:35:44;;;;;;;21.52;19.25;;;25.20;99.90;;;;;;10146651;29;20295;-85
2022/08/26 08:40:47;;;;;;;20.50;18.40;;;25.30;99.90;;;;;;10130662;29;20267;-85
2022/08/26 08:45:56;;;;;;;21.60;18.70;;;25.40;99.90;;;;;;10114795;29;20284;-85
2022/08/26 08:51:13;;;;;;;18.05;14.55;;;25.50;99.90;;;;;;10154204;29;20624;-85
2022/08/26 08:56:36;;;;;;;18.30;15.98;;;25.60;99.90;;;;;;10141404;29;20651;-85
2022/08/26 09:01:58;;;;;;;22.38;20.02;;;25.70;99.90;;;;;;10162211;29;20271;-85
2022/08/26 09:07:03;;;;;;;17.33;15.52;;;25.70;99.90;;;;;;10130716;29;20311;-85
2022/08/26 09:12:13;;;;;;;20.42;18.27;;;25.70;99.90;;;;;;10130073;29;20256;-85
2022/08/26 09:17:46;;;;;;;19.73;14.23;;;25.80;99.90;;;;;;10113789;29;20239;-85
2022/08/26 09:22:50;;;;;;;19.85;17.83;;;25.90;99.90;;;;;;10169915;29;20243;-85
2022/08/26 09:27:52;;;;;;;20.55;17.67;;;26.00;99.90;;;;;;10139485;29;20243;-85
2022/08/26 09:33:05;;;;;;;21.55;19.38;;;26.00;99.90;;;;;;10129508;29;20318;-85
2022/08/26 09:38:25;;;;;;;15.20;12.02;;;25.90;99.90;;;;;;10159979;29;20694;-85
2022/08/26 09:43:30;;;;;;;17.13;15.32;;;26.00;99.90;;;;;;10158329;29;20251;-85
2022/08/26 09:48:35;;;;;;;21.92;14.48;;;26.10;99.90;;;;;;10169804;29;20235;-85
2022/08/26 09:53:53;;;;;;;21.33;19.13;;;26.10;99.90;;;;;;10168282;29;20259;-85
2022/08/26 09:58:57;;;;;;;18.95;16.95;;;26.10;99.90;;;;;;10164440;29;20246;-85
2022/08/26 10:04:21;;;;;;;17.10;11.70;;;26.20;99.90;;;;;;10140769;29;20247;-85
2022/08/26 10:09:32;;;;;;;19.83;17.83;;;26.30;99.90;;;;;;10164551;29;20243;-84
2022/08/26 10:14:50;;;;;;;19.65;17.65;;;26.40;99.90;;;;;;10148647;29;20254;-85
2022/08/26 10:20:02;;;;;;;20.45;18.45;;;26.30;99.90;;;;;;10149020;29;20644;-85
2022/08/26 10:25:11;;;;;;;19.58;17.63;;;26.10;99.90;;;;;;10147313;29;20240;-85
2022/08/26 10:30:21;;;;;;;17.13;15.32;;;26.20;99.90;;;;;;10128195;29;20698;-85
2022/08/26 10:35:25;;;;;;;15.98;8.40;;;26.20;99.90;;;;;;10128520;29;20330;-85
2022/08/26 10:40:49;;;;;;;14.27;9.55;;;26.20;99.90;;;;;;10143010;29;20346;-85
2022/08/26 10:46:07;;;;;;;14.23;12.73;;;26.30;99.90;;;;;;10161161;29;20239;-85
2022/08/26 10:51:13;;;;;;;11.00;9.23;;;26.40;99.90;;;;;;10134713;29;20345;-85
2022/08/26 10:56:38;;;;;;;16.58;12.95;;;26.40;99.90;;;;;;10120305;29;20240;-85
2022/08/26 11:01:41;;;;;;;8.15;6.15;;;26.40;99.90;;;;;;10167351;29;20211;-85
2022/08/26 11:06:44;;;;;;;24.48;8.05;;;26.60;99.90;;;;;;10165748;29;20279;-85
2022/08/26 11:11:48;;;;;;;19.23;17.33;;;26.50;99.90;;;;;;10160522;29;20255;-85
2022/08/26 11:16:53;;;;;;;17.17;13.35;;;26.40;99.90;;;;;;10140047;29;20280;-85
2022/08/26 11:22:08;;;;;;;18.85;16.85;;;26.40;99.90;;;;;;10133519;29;20694;-85
2022/08/26 11:27:33;;;;;;;15.90;11.75;;;26.40;99.90;;;;;;10119606;29;20304;-85
2022/08/26 11:32:36;;;;;;;12.75;11.40;;;26.40;99.90;;;;;;10120246;29;20269;-83
2022/08/26 11:37:39;;;;;;;15.40;12.05;;;26.30;99.90;;;;;;10158950;29;20323;-84
2022/08/26 11:42:48;;;;;;;16.88;12.07;;;26.50;99.90;;;;;;10169271;29;20235;-87
2022/08/26 11:47:50;;;;;;;14.63;12.27;;;26.60;99.90;;;;;;10171907;29;20648;-84
2022/08/26 11:52:55;;;;;;;12.45;11.15;;;26.40;99.90;;;;;;10148540;29;20327;-84
2022/08/26 11:58:00;;;;;;;15.15;10.57;;;26.40;99.90;;;;;;10169455;29;20829;-85
2022/08/26 12:03:07;;;;;;;12.07;9.13;;;26.60;99.90;;;;;;10145103;29;20200;-85
2022/08/26 12:08:15;;;;;;;12.50;9.82;;;26.90;99.90;;;;;;10114621;29;20253;-84
2022/08/26 12:13:21;;;;;;;12.93;8.73;;;27.20;99.90;;;;;;10145495;29;20664;-85
2022/08/26 12:18:30;;;;;;;16.27;9.32;;;27.20;99.90;;;;;;10106160;29;20268;-84
2022/08/26 12:23:42;;;;;;;12.35;4.43;;;27.00;99.90;;;;;;10159494;29;20244;-84
2022/08/26 12:28:59;;;;;;;14.73;9.73;;;26.90;99.90;;;;;;10133596;29;20644;-85
2022/08/26 12:34:05;;;;;;;17.65;9.95;;;27.20;99.90;;;;;;10147512;29;20598;-87
2022/08/26 12:39:29;;;;;;;13.27;8.40;;;27.00;99.90;;;;;;10128550;29;20602;-85
2022/08/26 12:44:44;;;;;;;24.08;11.18;;;27.10;99.90;;;;;;10168180;29;20259;-86
2022/08/26 12:50:27;;;;;;;17.35;10.93;;;26.80;99.90;;;;;;10146586;29;20204;-86
2022/08/26 12:55:46;;;;;;;15.07;9.05;;;26.70;99.90;;;;;;10145492;29;20239;-85
2022/08/26 13:01:21;;;;;;;10.95;4.20;;;26.80;99.90;;;;;;10153762;29;20226;-89
2022/08/26 13:06:39;;;;;;;12.30;4.18;;;27.30;99.90;;;;;;10127218;29;21017;-87
2022/08/26 13:11:43;;;;;;;9.63;4.90;;;27.60;99.10;;;;;;10135430;29;20252;-86
2022/08/26 13:16:46;;;;;;;12.13;5.88;;;27.70;99.90;;;;;;10137445;29;20201;-86
2022/08/26 13:21:55;;;;;;;9.73;6.60;;;27.60;99.90;;;;;;10120857;29;20260;-86
2022/08/26 13:26:57;;;;;;;13.50;7.45;;;27.50;99.90;;;;;;10136116;29;20573;-86
2022/08/26 13:32:01;;;;;;;18.08;8.45;;;27.40;99.90;;;;;;10135790;29;20228;-86
2022/08/26 13:37:05;;;;;;;11.48;8.85;;;27.30;99.90;;;;;;10135528;29;20224;-86
2022/08/26 13:42:08;;;;;;;11.68;9.65;;;27.30;99.90;;;;;;10136893;29;20208;-86
2022/08/26 13:47:10;;;;;;;11.05;9.90;;;27.30;99.90;;;;;;10136720;29;20208;-86
2022/08/26 13:52:13;;;;;;;10.93;9.65;;;27.30;99.90;;;;;;10136631;29;20252;-86
2022/08/26 13:57:15;;;;;;;14.50;9.75;;;27.30;99.90;;;;;;10136272;29;20233;-86
2022/08/26 14:02:18;;;;;;;15.13;10.10;;;27.20;99.90;;;;;;10136038;29;20572;-86
2022/08/26 14:07:21;;;;;;;11.88;10.68;;;27.20;99.90;;;;;;10134320;29;20674;-86
2022/08/26 14:12:23;;;;;;;8.50;6.03;;;27.10;99.90;;;;;;10134374;29;20216;-86
2022/08/26 14:17:26;;;;;;;13.85;7.65;;;27.30;99.90;;;;;;10119352;29;20200;-86
2022/08/26 14:22:32;;;;;;;11.32;10.23;;;27.20;99.90;;;;;;10136020;29;20685;-86
2022/08/26 14:27:35;;;;;;;11.07;9.82;;;27.10;99.90;;;;;;10134538;29;20690;-86
2022/08/26 14:32:44;;;;;;;11.45;10.15;;;27.10;99.90;;;;;;10135100;29;20279;-85
2022/08/26 14:37:47;;;;;;;10.10;8.75;;;27.00;99.90;;;;;;10133431;29;20228;-85
2022/08/26 14:42:52;;;;;;;10.23;9.18;;;27.00;99.90;;;;;;10133859;29;20200;-85
2022/08/26 14:47:55;;;;;;;10.98;9.98;;;27.10;99.90;;;;;;10135579;29;20248;-85
2022/08/26 14:58:19;;;;;;;10.80;9.80;;;27.00;99.90;;;;;;10134821;29;20247;-85
2022/08/26 15:03:21;;;;;;;11.50;9.70;;;27.00;99.90;;;;;;10133550;29;20208;-85
2022/08/26 15:08:24;;;;;;;10.13;9.02;;;26.90;99.90;;;;;;10134835;29;20205;-85
2022/08/26 15:13:26;;;;;;;10.85;7.10;;;27.00;99.90;;;;;;10133390;29;20761;-85
2022/08/26 15:18:30;;;;;;;11.38;10.25;;;27.00;99.90;;;;;;10139292;29;20196;-85
2022/08/26 15:23:34;;;;;;;10.27;9.27;;;26.90;99.90;;;;;;10140756;29;20753;-85
2022/08/26 15:28:37;;;;;;;10.63;9.63;;;27.00;99.90;;;;;;10141834;29;20256;-85
2022/08/26 15:33:40;;;;;;;10.48;9.38;;;26.90;99.90;;;;;;10142118;29;20284;-85
2022/08/26 15:38:42;;;;;;;11.70;9.48;;;26.80;99.90;;;;;;10140599;29;20220;-85
2022/08/26 15:43:45;;;;;;;11.15;10.05;;;26.80;99.90;;;;;;10141451;29;20208;-85
2022/08/26 15:48:47;;;;;;;13.23;10.35;;;26.90;99.90;;;;;;10139609;29;20678;-85
2022/08/26 15:53:50;;;;;;;11.15;9.25;;;26.90;99.90;;;;;;10141051;29;20228;-85
2022/08/26 15:58:54;;;;;;;11.55;10.35;;;26.90;99.90;;;;;;10140579;29;20208;-85
2022/08/26 16:03:58;;;;;;;9.95;9.05;;;26.80;99.90;;;;;;10140516;29;20228;-85
2022/08/26 16:09:00;;;;;;;10.98;9.88;;;26.80;99.90;;;;;;10140428;29;20200;-85
2022/08/26 16:14:04;;;;;;;10.82;9.75;;;26.80;99.90;;;;;;10139330;29;20272;-85
2022/08/26 16:19:07;;;;;;;12.35;10.45;;;26.70;99.90;;;;;;10139354;29;20225;-86
2022/08/26 16:24:10;;;;;;;10.20;9.25;;;26.70;99.90;;;;;;10138035;29;20555;-85
2022/08/26 16:29:15;;;;;;;11.70;9.55;;;26.70;99.90;;;;;;10136998;29;20216;-85
2022/08/26 16:34:18;;;;;;;11.15;10.15;;;26.60;99.90;;;;;;10139359;29;20228;-85
2022/08/26 16:39:20;;;;;;;12.18;10.90;;;26.60;99.90;;;;;;10137897;29;20233;-86
2022/08/26 16:44:23;;;;;;;11.23;10.23;;;26.60;99.90;;;;;;10138564;29;20573;-86
2022/08/26 16:49:31;;;;;;;11.95;10.85;;;26.50;99.90;;;;;;10137507;29;20248;-86
2022/08/26 16:54:34;;;;;;;11.45;10.38;;;26.40;99.90;;;;;;10138361;29;20592;-86
2022/08/26 16:59:38;;;;;;;11.18;10.18;;;26.40;99.90;;;;;;10138004;29;20237;-86
2022/08/26 17:04:40;;;;;;;10.80;9.80;;;26.40;99.90;;;;;;10138076;29;20237;-86
2022/08/26 17:09:48;;;;;;;10.00;9.10;;;26.30;99.90;;;;;;10137850;29;20232;-86
2022/08/26 17:14:50;;;;;;;10.35;9.35;;;26.30;99.90;;;;;;10136281;29;20592;-87
2022/08/26 17:19:53;;;;;;;10.57;9.48;;;26.10;99.90;;;;;;10137518;29;20741;-87
2022/08/26 17:24:56;;;;;;;9.75;8.75;;;26.00;99.90;;;;;;10137453;29;20200;-86
2022/08/26 17:29:58;;;;;;;10.35;9.35;;;25.80;99.90;;;;;;10135727;29;20264;-87
2022/08/26 17:35:02;;;;;;;10.40;5.05;;;25.70;99.90;;;;;;10134990;29;20648;-86
2022/08/26 17:40:08;;;;;;;13.80;4.63;;;25.30;99.90;;;;;;10134214;29;20272;-87
2022/08/26 17:45:11;;;;;;;13.80;4.32;;;24.70;99.90;;;;;;10136712;29;20208;-87
2022/08/26 17:50:17;;;;;;;20.75;5.38;;;24.20;99.90;;;;;;10136378;29;20276;-87
2022/08/26 17:55:19;;;;;;;13.95;5.70;;;23.70;99.90;;;;;;10134864;29;20241;-86
2022/08/26 18:00:26;;;;;;;10.57;6.57;;;23.80;99.90;;;;;;10134315;29;20264;-87
2022/08/26 18:05:28;;;;;;;10.27;9.15;;;23.90;99.90;;;;;;10134787;29;20232;-86
2022/08/26 18:10:31;;;;;;;16.27;4.50;;;23.70;99.90;;;;;;10135449;29;20745;-87
2022/08/26 18:15:38;;;;;;;8.27;3.97;;;23.50;99.90;;;;;;10134213;29;20224;-86
2022/08/26 18:20:43;;;;;;;17.33;4.28;;;23.20;99.90;;;;;;10135367;29;20232;-87
2022/08/26 18:25:45;;;;;;;12.35;4.35;;;22.90;99.90;;;;;;10134004;29;20205;-87
2022/08/26 18:30:48;;;;;;;14.13;5.35;;;22.60;99.90;;;;;;10134334;29;20240;-86
2022/08/26 18:35:51;;;;;;;16.63;6.30;;;22.40;99.90;;;;;;10134960;29;20252;-87
2022/08/26 18:40:54;;;;;;;15.35;5.05;;;22.20;99.90;;;;;;10133735;29;20264;-87
2022/08/26 18:46:01;;;;;;;8.38;7.05;;;22.20;99.90;;;;;;10134330;29;20212;-87
2022/08/26 18:51:05;;;;;;;14.35;5.30;;;22.50;99.90;;;;;;10135138;29;20208;-86
2022/08/26 18:56:11;;;;;;;13.55;5.00;;;22.30;99.90;;;;;;10141817;29;20599;-87
2022/08/26 19:01:20;;;;;;;13.25;5.25;;;22.10;99.90;;;;;;10142942;29;20678;-86
2022/08/26 19:06:31;;;;;;;11.10;5.10;;;21.90;99.90;;;;;;10141595;29;20677;-86
2022/08/26 19:11:34;;;;;;;12.93;5.25;;;21.80;99.90;;;;;;10142160;29;20574;-87
2022/08/26 19:16:47;;;;;;;14.60;5.25;;;21.60;99.90;;;;;;10142116;29;20228;-87
2022/08/26 19:21:50;;;;;;;18.83;5.70;;;21.40;99.90;;;;;;10142397;29;20193;-87
2022/08/26 19:26:56;;;;;;;13.60;5.25;;;21.30;99.90;;;;;;10142114;29;20209;-87
2022/08/26 19:32:00;;;;;;;13.27;5.32;;;21.20;99.90;;;;;;10140551;29;20212;-86
2022/08/26 19:37:03;;;;;;;8.98;5.57;;;20.80;99.90;;;;;;10139801;29;20299;-86
2022/08/26 19:42:05;;;;;;;8.93;5.15;;;20.70;99.90;;;;;;10140039;29;20272;-87
2022/08/26 19:47:09;;;;;;;12.75;5.53;;;20.50;99.90;;;;;;10140752;29;20200;-87
2022/08/26 19:52:12;;;;;;;10.13;5.88;;;20.40;99.90;;;;;;10140653;29;20209;-87
2022/08/26 19:57:15;;;;;;;11.55;5.68;;;20.30;99.90;;;;;;10140083;29;20224;-87
2022/08/26 20:02:18;;;;;;;13.95;5.82;;;20.10;99.90;;;;;;10140714;29;20197;-87
2022/08/26 20:07:22;;;;;;;10.32;5.07;;;20.10;99.90;;;;;;10141224;29;20573;-87
2022/08/26 20:12:26;;;;;;;14.60;6.05;;;20.10;99.90;;;;;;10140126;29;20204;-87
2022/08/26 20:17:29;;;;;;;15.50;6.70;;;20.00;99.90;;;;;;10138682;29;20220;-87
2022/08/26 20:22:32;;;;;;;10.95;6.30;;;19.90;99.90;;;;;;10139688;29;20225;-87
2022/08/26 20:27:36;;;;;;;17.08;6.10;;;19.80;99.90;;;;;;10137617;29;20757;-87
2022/08/26 20:32:40;;;;;;;11.80;6.55;;;19.80;99.90;;;;;;10138355;29;20240;-86
2022/08/26 20:37:43;;;;;;;8.90;6.60;;;19.80;99.90;;;;;;10137664;29;20233;-86
2022/08/26 20:42:45;;;;;;;13.38;7.20;;;19.70;99.90;;;;;;10138570;29;20204;-87
2022/08/26 20:47:47;;;;;;;10.65;7.82;;;19.80;99.90;;;;;;10138440;29;20632;-87
2022/08/26 20:52:52;;;;;;;11.98;6.13;;;19.80;99.90;;;;;;10137054;29;20273;-87
2022/08/26 20:57:54;;;;;;;11.38;7.25;;;19.70;99.90;;;;;;10137315;29;20284;-87
2022/08/26 21:02:59;;;;;;;18.83;6.97;;;19.70;99.90;;;;;;10137042;29;20572;-87
2022/08/26 21:08:02;;;;;;;14.43;6.93;;;19.60;99.90;;;;;;10137114;29;20205;-87
2022/08/26 21:13:04;;;;;;;10.25;6.45;;;19.50;99.90;;;;;;10136822;29;20264;-86
2022/08/26 21:18:07;;;;;;;10.23;7.15;;;19.40;99.90;;;;;;10137640;29;20268;-87
2022/08/26 21:23:10;;;;;;;18.55;7.35;;;19.30;99.90;;;;;;10137833;29;20200;-86
2022/08/26 21:28:12;;;;;;;13.35;7.03;;;19.30;99.90;;;;;;10135722;29;20264;-87
2022/08/26 21:33:15;;;;;;;18.08;7.15;;;19.10;99.90;;;;;;10137454;29;20252;-87
2022/08/26 21:38:17;;;;;;;13.45;7.88;;;19.10;99.90;;;;;;10135468;29;20287;-87
2022/08/26 21:43:21;;;;;;;14.50;6.65;;;19.20;99.90;;;;;;10137105;29;20208;-87
2022/08/26 21:48:38;;;;;;;16.60;7.60;;;19.10;99.90;;;;;;10136701;29;20256;-86
2022/08/26 21:53:40;;;;;;;10.30;7.05;;;19.00;99.90;;;;;;10135367;29;20213;-86
2022/08/26 21:58:43;;;;;;;13.68;8.10;;;19.00;99.90;;;;;;10136106;29;20619;-87
2022/08/26 22:03:48;;;;;;;14.77;7.43;;;18.80;99.90;;;;;;10119326;29;20212;-87
2022/08/26 22:08:51;;;;;;;18.15;7.45;;;18.60;99.90;;;;;;10135903;29;20259;-86
2022/08/26 22:13:55;;;;;;;17.13;7.85;;;18.60;99.90;;;;;;10134953;29;20260;-87
2022/08/26 22:18:58;;;;;;;19.17;8.77;;;18.50;99.90;;;;;;10134647;29;20200;-86
2022/08/26 22:24:02;;;;;;;13.95;9.07;;;18.50;99.90;;;;;;10135787;29;20619;-86
2022/08/26 22:29:06;;;;;;;20.02;8.15;;;18.60;99.90;;;;;;10135570;29;20252;-87
2022/08/26 22:34:11;;;;;;;20.58;8.43;;;18.50;99.90;;;;;;10134008;29;20800;-86
2022/08/26 22:39:17;;;;;;;14.70;8.32;;;18.60;99.90;;;;;;10133840;29;20605;-87
2022/08/26 22:44:20;;;;;;;15.68;9.07;;;18.60;99.90;;;;;;10134024;29;20244;-86
2022/08/26 22:49:23;;;;;;;14.52;9.20;;;18.70;99.90;;;;;;10134635;29;20200;-86
2022/08/26 22:54:26;;;;;;;16.13;9.07;;;18.70;99.90;;;;;;10135241;29;20228;-86
2022/08/26 22:59:29;;;;;;;14.02;8.15;;;18.70;99.90;;;;;;10133904;29;20212;-87
2022/08/26 23:04:32;;;;;;;13.93;8.68;;;18.70;99.90;;;;;;10135042;29;20328;-87
2022/08/26 23:09:36;;;;;;;11.27;8.57;;;18.70;99.90;;;;;;10135064;29;20204;-86
2022/08/26 23:14:40;;;;;;;14.63;7.93;;;18.50;99.90;;;;;;10133149;29;20221;-86
2022/08/26 23:19:42;;;;;;;18.08;9.65;;;18.50;99.90;;;;;;10133194;29;20252;-87
2022/08/26 23:24:45;;;;;;;19.33;9.07;;;;;;;;;;10134008;29;20252;-87
2022/08/26 23:29:47;;;;;;;13.00;8.68;;;18.30;99.90;;;;;;10134548;29;20212;-86
2022/08/26 23:34:57;;;;;;;17.02;9.38;;;18.20;99.90;;;;;;10134468;29;20561;-86
2022/08/26 23:40:12;;;;;;;12.90;9.57;;;18.10;99.90;;;;;;10140136;29;20236;-86
2022/08/26 23:45:17;;;;;;;13.77;9.25;;;18.10;99.90;;;;;;10141497;29;20211;-86
2022/08/26 23:53:04;;;;;;;12.00;8.40;;;18.00;99.90;;;;;;10140086;29;20311;-87
2022/08/26 23:55:48;;;;;;;16.65;8.18;;;17.80;99.90;;;;;;10140897;29;20228;-87
